map of LEJ home
LEJ - Airport
Location
City:  Leipzig, Saxony, Germany
Near (Alt.):Schkeuditz
Name:Leipzig/Halle Airport
ICAO:EDDP
IATA:LEJ

Details
Type:Airport (Flugplatz, Airfield)
Use:Public/Civil
Latitude:5125'57"N (51.432447)
Longitude:1214'30"E (12.241633)
Datum:WGS 1984
Elevation:465 ft (142 m)
Variation:3.68E (WMM2015v2 magnetic declination)
0.17 annual change
Runways:2
Longest:11811 × 198 ft (3600 × 60.5 m)

Time
Time Zone:UTC+1 (DST+2)
Local Time:

Weather
METAR:EDDP 041350Z 20008KT 170V230 CAVOK 05/M03 Q1027 NOSIG
TAF:EDDP 041100Z 0412/0512 19010KT CAVOK

Related Locations
Nearby:
Farthest:CHT: 11769 mi / 18941 km
Waitangi [Tuuta], CIT, NZ

Find:

   beyond  
but within

Other Information
Maps:
NOTAMs:
Links:
Sources:

  
  • flag of Germany
  • flag of Saxony
  • flag of Leipzig
  

Sectional Chart

Flight Planning
at skyvector.com

Satellite Image

Google Maps Satellite view

 

Copyright © 2004-2019 Karl L. Swartz. All rights reserved.
The Great Circle Mapper name and logo are trademarks of the Great Circle Mapper.
All other trademarks mentioned herein belong to their respective owners.
Please see credits for attibutions and further copyright information.

  Follow gcmap on Facebook Follow gcmap on Twitter GCmap on LinkedIn

hCard Microformat

Geo Microformat